Terminal Aerodrome Forecast
Issued by NWS Sterling, VA

Home | Current Version | Previous Version | Text Only | Print | Product List | Glossary On
Versions: 1 2 3 4 5 6 7 8 9 10 11 12 13 14 15 16 17 18 19 20 21
000
FTUS41 KLWX 232336
TAFDCA
TAF
KDCA 232336Z 2400/2506 14008KT P6SM BKN150
     FM241000 10005KT 6SM -RA OVC110
     FM241300 11008KT P6SM RA OVC025
     FM241800 11012G21KT P6SM RA OVC020
     FM242000 09010G19KT 5SM RA OVC008
     FM250400 07008KT 4SM -RA OVC008=

USA.gov is the U.S. government's official web portal to all federal, state and local government web resources and services.